sensor_id;sensor_type;location;lat;lon;timestamp;P1;durP1;ratioP1;P2;durP2;ratioP2
46288;SDS011;63105;46.158;14.604;2024-03-08T00:01:39;4.63;;;2.30;;
46288;SDS011;63105;46.158;14.604;2024-03-08T00:04:04;4.68;;;2.50;;
46288;SDS011;63105;46.158;14.604;2024-03-08T00:06:31;4.60;;;2.40;;
46288;SDS011;63105;46.158;14.604;2024-03-08T00:08:56;4.20;;;2.15;;
46288;SDS011;63105;46.158;14.604;2024-03-08T00:11:21;4.88;;;2.30;;
46288;SDS011;63105;46.158;14.604;2024-03-08T00:13:47;3.80;;;2.20;;
46288;SDS011;63105;46.158;14.604;2024-03-08T00:16:12;4.05;;;2.00;;
46288;SDS011;63105;46.158;14.604;2024-03-08T00:18:37;4.15;;;2.17;;
46288;SDS011;63105;46.158;14.604;2024-03-08T00:21:02;4.15;;;2.28;;
46288;SDS011;63105;46.158;14.604;2024-03-08T00:23:28;4.35;;;2.20;;
46288;SDS011;63105;46.158;14.604;2024-03-08T00:25:53;4.30;;;2.08;;
46288;SDS011;63105;46.158;14.604;2024-03-08T00:28:19;4.32;;;2.35;;
46288;SDS011;63105;46.158;14.604;2024-03-08T00:30:45;4.10;;;2.25;;
46288;SDS011;63105;46.158;14.604;2024-03-08T00:33:11;3.92;;;2.13;;
46288;SDS011;63105;46.158;14.604;2024-03-08T00:35:36;4.10;;;2.10;;
46288;SDS011;63105;46.158;14.604;2024-03-08T00:38:02;4.53;;;2.30;;
46288;SDS011;63105;46.158;14.604;2024-03-08T00:40:27;4.05;;;2.30;;
46288;SDS011;63105;46.158;14.604;2024-03-08T00:42:53;4.28;;;2.20;;
46288;SDS011;63105;46.158;14.604;2024-03-08T00:45:19;4.40;;;2.30;;
46288;SDS011;63105;46.158;14.604;2024-03-08T00:47:44;5.25;;;2.28;;
46288;SDS011;63105;46.158;14.604;2024-03-08T00:50:09;4.25;;;2.33;;
46288;SDS011;63105;46.158;14.604;2024-03-08T00:52:35;3.70;;;2.17;;
46288;SDS011;63105;46.158;14.604;2024-03-08T00:55:00;3.50;;;2.00;;
46288;SDS011;63105;46.158;14.604;2024-03-08T00:57:25;4.75;;;2.38;;
46288;SDS011;63105;46.158;14.604;2024-03-08T00:59:50;4.22;;;2.10;;
46288;SDS011;63105;46.158;14.604;2024-03-08T01:02:16;3.70;;;2.10;;
46288;SDS011;63105;46.158;14.604;2024-03-08T01:04:43;4.40;;;2.40;;
46288;SDS011;63105;46.158;14.604;2024-03-08T01:07:09;5.30;;;3.08;;
46288;SDS011;63105;46.158;14.604;2024-03-08T01:09:34;4.75;;;2.80;;
46288;SDS011;63105;46.158;14.604;2024-03-08T01:11:59;4.35;;;2.40;;
46288;SDS011;63105;46.158;14.604;2024-03-08T01:14:26;4.57;;;2.83;;
46288;SDS011;63105;46.158;14.604;2024-03-08T01:16:51;4.00;;;2.38;;
46288;SDS011;63105;46.158;14.604;2024-03-08T01:19:16;4.40;;;2.50;;
46288;SDS011;63105;46.158;14.604;2024-03-08T01:21:42;4.80;;;2.67;;
46288;SDS011;63105;46.158;14.604;2024-03-08T01:24:07;5.22;;;3.17;;
46288;SDS011;63105;46.158;14.604;2024-03-08T01:26:33;5.72;;;3.60;;
46288;SDS011;63105;46.158;14.604;2024-03-08T01:29:01;4.60;;;3.00;;
46288;SDS011;63105;46.158;14.604;2024-03-08T01:31:30;5.63;;;3.10;;
46288;SDS011;63105;46.158;14.604;2024-03-08T01:33:55;4.75;;;2.50;;
46288;SDS011;63105;46.158;14.604;2024-03-08T01:36:21;5.10;;;3.05;;
46288;SDS011;63105;46.158;14.604;2024-03-08T01:38:46;5.68;;;3.35;;
46288;SDS011;63105;46.158;14.604;2024-03-08T01:41:11;6.00;;;3.80;;
46288;SDS011;63105;46.158;14.604;2024-03-08T01:43:38;5.70;;;3.00;;
46288;SDS011;63105;46.158;14.604;2024-03-08T01:46:03;5.22;;;3.05;;
46288;SDS011;63105;46.158;14.604;2024-03-08T01:48:30;5.32;;;3.40;;
46288;SDS011;63105;46.158;14.604;2024-03-08T01:50:56;5.53;;;3.58;;
46288;SDS011;63105;46.158;14.604;2024-03-08T01:53:24;6.10;;;4.28;;
46288;SDS011;63105;46.158;14.604;2024-03-08T01:55:49;7.03;;;3.97;;
46288;SDS011;63105;46.158;14.604;2024-03-08T01:58:15;6.20;;;4.00;;
46288;SDS011;63105;46.158;14.604;2024-03-08T02:00:42;5.97;;;3.85;;
46288;SDS011;63105;46.158;14.604;2024-03-08T02:03:08;5.82;;;4.00;;
46288;SDS011;63105;46.158;14.604;2024-03-08T02:05:34;7.13;;;4.78;;
46288;SDS011;63105;46.158;14.604;2024-03-08T02:07:59;6.95;;;4.75;;
46288;SDS011;63105;46.158;14.604;2024-03-08T02:10:25;7.00;;;5.00;;
46288;SDS011;63105;46.158;14.604;2024-03-08T02:12:50;6.63;;;4.18;;
46288;SDS011;63105;46.158;14.604;2024-03-08T02:15:15;5.60;;;3.65;;
46288;SDS011;63105;46.158;14.604;2024-03-08T02:17:41;7.32;;;4.82;;
46288;SDS011;63105;46.158;14.604;2024-03-08T02:20:06;6.45;;;4.15;;
46288;SDS011;63105;46.158;14.604;2024-03-08T02:22:34;6.22;;;4.45;;
46288;SDS011;63105;46.158;14.604;2024-03-08T02:24:59;6.50;;;4.25;;
46288;SDS011;63105;46.158;14.604;2024-03-08T02:27:26;6.32;;;4.50;;
46288;SDS011;63105;46.158;14.604;2024-03-08T02:29:53;5.60;;;3.47;;
46288;SDS011;63105;46.158;14.604;2024-03-08T02:32:21;6.15;;;3.88;;
46288;SDS011;63105;46.158;14.604;2024-03-08T02:34:46;6.55;;;4.00;;
46288;SDS011;63105;46.158;14.604;2024-03-08T02:37:11;5.25;;;3.33;;
46288;SDS011;63105;46.158;14.604;2024-03-08T02:39:36;5.88;;;4.07;;
46288;SDS011;63105;46.158;14.604;2024-03-08T02:42:01;6.30;;;4.03;;
46288;SDS011;63105;46.158;14.604;2024-03-08T02:44:27;5.20;;;3.58;;
46288;SDS011;63105;46.158;14.604;2024-03-08T02:46:52;6.00;;;3.47;;
46288;SDS011;63105;46.158;14.604;2024-03-08T02:49:20;5.78;;;3.85;;
46288;SDS011;63105;46.158;14.604;2024-03-08T02:51:45;5.45;;;3.33;;
46288;SDS011;63105;46.158;14.604;2024-03-08T02:54:11;5.15;;;3.33;;
46288;SDS011;63105;46.158;14.604;2024-03-08T02:56:36;4.85;;;2.92;;
46288;SDS011;63105;46.158;14.604;2024-03-08T02:59:01;4.60;;;2.92;;
46288;SDS011;63105;46.158;14.604;2024-03-08T03:01:27;5.05;;;3.42;;
46288;SDS011;63105;46.158;14.604;2024-03-08T03:03:52;5.30;;;3.40;;
46288;SDS011;63105;46.158;14.604;2024-03-08T03:06:18;4.90;;;3.20;;
46288;SDS011;63105;46.158;14.604;2024-03-08T03:08:46;5.15;;;3.38;;
46288;SDS011;63105;46.158;14.604;2024-03-08T03:11:11;5.20;;;3.40;;
46288;SDS011;63105;46.158;14.604;2024-03-08T03:13:38;5.20;;;3.33;;
46288;SDS011;63105;46.158;14.604;2024-03-08T03:16:03;5.70;;;3.97;;
46288;SDS011;63105;46.158;14.604;2024-03-08T03:18:29;5.47;;;3.60;;
46288;SDS011;63105;46.158;14.604;2024-03-08T03:20:54;5.50;;;3.28;;
46288;SDS011;63105;46.158;14.604;2024-03-08T03:23:19;5.25;;;3.15;;
46288;SDS011;63105;46.158;14.604;2024-03-08T03:25:45;5.75;;;3.60;;
46288;SDS011;63105;46.158;14.604;2024-03-08T03:28:11;5.90;;;3.40;;
46288;SDS011;63105;46.158;14.604;2024-03-08T03:30:39;5.25;;;3.35;;
46288;SDS011;63105;46.158;14.604;2024-03-08T03:33:05;6.35;;;3.72;;
46288;SDS011;63105;46.158;14.604;2024-03-08T03:35:33;5.82;;;3.50;;
46288;SDS011;63105;46.158;14.604;2024-03-08T03:37:59;4.93;;;3.22;;
46288;SDS011;63105;46.158;14.604;2024-03-08T03:40:31;5.43;;;3.65;;
46288;SDS011;63105;46.158;14.604;2024-03-08T03:42:57;4.70;;;3.10;;
46288;SDS011;63105;46.158;14.604;2024-03-08T03:45:23;5.25;;;3.72;;
46288;SDS011;63105;46.158;14.604;2024-03-08T03:47:48;6.03;;;4.15;;
46288;SDS011;63105;46.158;14.604;2024-03-08T03:50:13;6.72;;;4.15;;
46288;SDS011;63105;46.158;14.604;2024-03-08T03:52:38;5.78;;;3.78;;
46288;SDS011;63105;46.158;14.604;2024-03-08T03:55:04;5.53;;;3.50;;
46288;SDS011;63105;46.158;14.604;2024-03-08T03:57:30;5.85;;;3.65;;
46288;SDS011;63105;46.158;14.604;2024-03-08T03:59:55;6.68;;;4.20;;
46288;SDS011;63105;46.158;14.604;2024-03-08T04:02:20;6.20;;;3.70;;
46288;SDS011;63105;46.158;14.604;2024-03-08T04:04:46;8.48;;;4.97;;
46288;SDS011;63105;46.158;14.604;2024-03-08T04:07:11;6.05;;;3.65;;
46288;SDS011;63105;46.158;14.604;2024-03-08T04:09:36;6.35;;;4.15;;
46288;SDS011;63105;46.158;14.604;2024-03-08T04:12:02;5.93;;;4.20;;
46288;SDS011;63105;46.158;14.604;2024-03-08T04:14:27;7.15;;;4.75;;
46288;SDS011;63105;46.158;14.604;2024-03-08T04:16:52;5.57;;;3.65;;
46288;SDS011;63105;46.158;14.604;2024-03-08T04:19:18;5.30;;;3.40;;
46288;SDS011;63105;46.158;14.604;2024-03-08T04:21:44;5.28;;;3.53;;
46288;SDS011;63105;46.158;14.604;2024-03-08T04:24:09;5.50;;;3.30;;
46288;SDS011;63105;46.158;14.604;2024-03-08T04:26:34;5.90;;;3.65;;
46288;SDS011;63105;46.158;14.604;2024-03-08T04:29:00;5.43;;;3.47;;
46288;SDS011;63105;46.158;14.604;2024-03-08T04:31:25;5.75;;;3.50;;
46288;SDS011;63105;46.158;14.604;2024-03-08T04:33:51;4.53;;;3.05;;
46288;SDS011;63105;46.158;14.604;2024-03-08T04:36:17;5.32;;;3.50;;
46288;SDS011;63105;46.158;14.604;2024-03-08T04:38:42;6.43;;;3.65;;
46288;SDS011;63105;46.158;14.604;2024-03-08T04:41:07;5.82;;;3.53;;
46288;SDS011;63105;46.158;14.604;2024-03-08T04:43:33;5.40;;;3.38;;
46288;SDS011;63105;46.158;14.604;2024-03-08T04:45:59;5.35;;;3.53;;
46288;SDS011;63105;46.158;14.604;2024-03-08T04:48:24;5.10;;;3.20;;
46288;SDS011;63105;46.158;14.604;2024-03-08T04:50:51;4.55;;;3.08;;
46288;SDS011;63105;46.158;14.604;2024-03-08T04:53:18;5.50;;;3.20;;
46288;SDS011;63105;46.158;14.604;2024-03-08T04:55:43;5.18;;;3.28;;
46288;SDS011;63105;46.158;14.604;2024-03-08T04:58:09;5.72;;;3.50;;
46288;SDS011;63105;46.158;14.604;2024-03-08T05:00:34;5.80;;;3.60;;
46288;SDS011;63105;46.158;14.604;2024-03-08T05:03:00;5.50;;;3.63;;
46288;SDS011;63105;46.158;14.604;2024-03-08T05:05:25;5.18;;;3.30;;
46288;SDS011;63105;46.158;14.604;2024-03-08T05:07:53;5.55;;;3.40;;
46288;SDS011;63105;46.158;14.604;2024-03-08T05:10:18;5.30;;;3.25;;
46288;SDS011;63105;46.158;14.604;2024-03-08T05:12:44;5.95;;;3.50;;
46288;SDS011;63105;46.158;14.604;2024-03-08T05:15:09;5.80;;;3.60;;
46288;SDS011;63105;46.158;14.604;2024-03-08T05:17:34;5.45;;;3.50;;
46288;SDS011;63105;46.158;14.604;2024-03-08T05:19:59;5.97;;;3.42;;
46288;SDS011;63105;46.158;14.604;2024-03-08T05:22:25;5.68;;;3.63;;
46288;SDS011;63105;46.158;14.604;2024-03-08T05:24:51;6.05;;;3.90;;
46288;SDS011;63105;46.158;14.604;2024-03-08T05:27:16;5.30;;;3.58;;
46288;SDS011;63105;46.158;14.604;2024-03-08T05:29:41;5.53;;;3.33;;
46288;SDS011;63105;46.158;14.604;2024-03-08T05:32:06;5.82;;;3.90;;
46288;SDS011;63105;46.158;14.604;2024-03-08T05:34:32;6.30;;;3.83;;
46288;SDS011;63105;46.158;14.604;2024-03-08T05:36:57;6.00;;;3.75;;
46288;SDS011;63105;46.158;14.604;2024-03-08T05:39:23;5.15;;;3.47;;
46288;SDS011;63105;46.158;14.604;2024-03-08T05:41:49;6.15;;;4.03;;
46288;SDS011;63105;46.158;14.604;2024-03-08T05:44:14;5.90;;;4.15;;
46288;SDS011;63105;46.158;14.604;2024-03-08T05:46:39;5.72;;;4.07;;
46288;SDS011;63105;46.158;14.604;2024-03-08T05:49:05;5.70;;;3.80;;
46288;SDS011;63105;46.158;14.604;2024-03-08T05:51:34;5.93;;;3.95;;
46288;SDS011;63105;46.158;14.604;2024-03-08T05:54:01;6.82;;;4.38;;
46288;SDS011;63105;46.158;14.604;2024-03-08T05:56:31;6.35;;;4.10;;
46288;SDS011;63105;46.158;14.604;2024-03-08T05:58:57;5.82;;;3.88;;
46288;SDS011;63105;46.158;14.604;2024-03-08T06:01:23;6.65;;;4.35;;
46288;SDS011;63105;46.158;14.604;2024-03-08T06:03:48;5.85;;;3.95;;
46288;SDS011;63105;46.158;14.604;2024-03-08T06:06:14;6.75;;;4.32;;
46288;SDS011;63105;46.158;14.604;2024-03-08T06:08:40;6.97;;;4.30;;
46288;SDS011;63105;46.158;14.604;2024-03-08T06:11:07;7.07;;;4.20;;
46288;SDS011;63105;46.158;14.604;2024-03-08T06:13:33;5.97;;;4.38;;
46288;SDS011;63105;46.158;14.604;2024-03-08T06:15:59;6.28;;;4.15;;
46288;SDS011;63105;46.158;14.604;2024-03-08T06:18:24;7.22;;;4.10;;
46288;SDS011;63105;46.158;14.604;2024-03-08T06:20:49;5.78;;;4.13;;
46288;SDS011;63105;46.158;14.604;2024-03-08T06:23:15;7.00;;;4.78;;
46288;SDS011;63105;46.158;14.604;2024-03-08T06:25:43;6.45;;;4.40;;
46288;SDS011;63105;46.158;14.604;2024-03-08T06:28:08;7.10;;;4.93;;
46288;SDS011;63105;46.158;14.604;2024-03-08T06:30:33;6.35;;;4.30;;
46288;SDS011;63105;46.158;14.604;2024-03-08T06:32:59;7.30;;;4.95;;
46288;SDS011;63105;46.158;14.604;2024-03-08T06:35:25;7.60;;;5.13;;
46288;SDS011;63105;46.158;14.604;2024-03-08T06:37:50;7.53;;;4.55;;
46288;SDS011;63105;46.158;14.604;2024-03-08T06:40:15;8.32;;;5.05;;
46288;SDS011;63105;46.158;14.604;2024-03-08T06:42:41;7.13;;;5.03;;
46288;SDS011;63105;46.158;14.604;2024-03-08T06:45:06;7.57;;;5.32;;
46288;SDS011;63105;46.158;14.604;2024-03-08T06:47:34;7.85;;;5.47;;
46288;SDS011;63105;46.158;14.604;2024-03-08T06:49:59;8.68;;;5.90;;
46288;SDS011;63105;46.158;14.604;2024-03-08T06:52:24;8.52;;;5.65;;
46288;SDS011;63105;46.158;14.604;2024-03-08T06:54:49;8.75;;;5.72;;
46288;SDS011;63105;46.158;14.604;2024-03-08T06:57:17;8.43;;;5.20;;
46288;SDS011;63105;46.158;14.604;2024-03-08T06:59:42;8.60;;;5.30;;
46288;SDS011;63105;46.158;14.604;2024-03-08T07:02:07;9.27;;;6.13;;
46288;SDS011;63105;46.158;14.604;2024-03-08T07:04:35;9.23;;;5.85;;
46288;SDS011;63105;46.158;14.604;2024-03-08T07:07:06;9.10;;;5.95;;
46288;SDS011;63105;46.158;14.604;2024-03-08T07:09:34;10.80;;;7.30;;
46288;SDS011;63105;46.158;14.604;2024-03-08T07:12:00;9.23;;;6.30;;
46288;SDS011;63105;46.158;14.604;2024-03-08T07:14:25;9.38;;;5.70;;
46288;SDS011;63105;46.158;14.604;2024-03-08T07:16:50;10.00;;;6.63;;
46288;SDS011;63105;46.158;14.604;2024-03-08T07:19:16;8.52;;;6.30;;
46288;SDS011;63105;46.158;14.604;2024-03-08T07:21:42;9.15;;;6.50;;
46288;SDS011;63105;46.158;14.604;2024-03-08T07:24:07;8.70;;;6.18;;
46288;SDS011;63105;46.158;14.604;2024-03-08T07:26:41;9.00;;;6.35;;
46288;SDS011;63105;46.158;14.604;2024-03-08T07:29:06;11.02;;;6.82;;
46288;SDS011;63105;46.158;14.604;2024-03-08T07:31:33;11.77;;;7.38;;
46288;SDS011;63105;46.158;14.604;2024-03-08T07:34:07;10.75;;;7.05;;
46288;SDS011;63105;46.158;14.604;2024-03-08T07:36:33;11.07;;;7.03;;
46288;SDS011;63105;46.158;14.604;2024-03-08T07:38:58;9.82;;;7.07;;
46288;SDS011;63105;46.158;14.604;2024-03-08T07:41:24;10.57;;;7.70;;
46288;SDS011;63105;46.158;14.604;2024-03-08T07:43:50;10.73;;;7.72;;
46288;SDS011;63105;46.158;14.604;2024-03-08T07:46:15;11.77;;;8.45;;
46288;SDS011;63105;46.158;14.604;2024-03-08T07:48:43;11.65;;;8.00;;
46288;SDS011;63105;46.158;14.604;2024-03-08T07:51:09;10.52;;;7.22;;
46288;SDS011;63105;46.158;14.604;2024-03-08T07:53:37;12.60;;;8.75;;
46288;SDS011;63105;46.158;14.604;2024-03-08T07:56:03;10.98;;;7.97;;
46288;SDS011;63105;46.158;14.604;2024-03-08T07:58:29;11.73;;;8.27;;
46288;SDS011;63105;46.158;14.604;2024-03-08T08:00:55;13.13;;;8.98;;
46288;SDS011;63105;46.158;14.604;2024-03-08T08:03:20;15.35;;;11.25;;
46288;SDS011;63105;46.158;14.604;2024-03-08T08:05:45;13.73;;;8.85;;
46288;SDS011;63105;46.158;14.604;2024-03-08T08:08:11;13.50;;;9.18;;
46288;SDS011;63105;46.158;14.604;2024-03-08T08:10:37;12.30;;;8.70;;
46288;SDS011;63105;46.158;14.604;2024-03-08T08:13:02;12.48;;;8.40;;
46288;SDS011;63105;46.158;14.604;2024-03-08T08:15:29;11.73;;;7.78;;
46288;SDS011;63105;46.158;14.604;2024-03-08T08:17:54;12.57;;;8.32;;
46288;SDS011;63105;46.158;14.604;2024-03-08T08:20:20;11.68;;;8.35;;
46288;SDS011;63105;46.158;14.604;2024-03-08T08:22:46;13.15;;;8.85;;
46288;SDS011;63105;46.158;14.604;2024-03-08T08:25:13;13.52;;;9.32;;
46288;SDS011;63105;46.158;14.604;2024-03-08T08:27:40;12.80;;;8.77;;
46288;SDS011;63105;46.158;14.604;2024-03-08T08:30:07;13.38;;;8.95;;
46288;SDS011;63105;46.158;14.604;2024-03-08T08:32:35;14.52;;;9.98;;
46288;SDS011;63105;46.158;14.604;2024-03-08T08:35:01;14.02;;;8.50;;
46288;SDS011;63105;46.158;14.604;2024-03-08T08:37:27;12.68;;;8.60;;
46288;SDS011;63105;46.158;14.604;2024-03-08T08:39:53;14.82;;;9.48;;
46288;SDS011;63105;46.158;14.604;2024-03-08T08:42:18;13.35;;;8.85;;
46288;SDS011;63105;46.158;14.604;2024-03-08T08:44:44;11.93;;;8.52;;
46288;SDS011;63105;46.158;14.604;2024-03-08T08:47:09;12.30;;;8.75;;
46288;SDS011;63105;46.158;14.604;2024-03-08T08:49:34;13.52;;;9.07;;
46288;SDS011;63105;46.158;14.604;2024-03-08T08:52:00;12.73;;;8.73;;
46288;SDS011;63105;46.158;14.604;2024-03-08T08:54:26;13.05;;;8.75;;
46288;SDS011;63105;46.158;14.604;2024-03-08T08:56:52;12.93;;;8.95;;
46288;SDS011;63105;46.158;14.604;2024-03-08T08:59:18;16.63;;;10.73;;
46288;SDS011;63105;46.158;14.604;2024-03-08T09:01:48;17.65;;;11.95;;
46288;SDS011;63105;46.158;14.604;2024-03-08T09:04:13;14.75;;;10.20;;
46288;SDS011;63105;46.158;14.604;2024-03-08T09:06:38;14.13;;;9.52;;
46288;SDS011;63105;46.158;14.604;2024-03-08T09:09:06;12.32;;;8.82;;
46288;SDS011;63105;46.158;14.604;2024-03-08T09:11:34;12.80;;;9.10;;
46288;SDS011;63105;46.158;14.604;2024-03-08T09:13:59;12.85;;;9.45;;
46288;SDS011;63105;46.158;14.604;2024-03-08T09:16:24;13.63;;;9.55;;
46288;SDS011;63105;46.158;14.604;2024-03-08T09:18:49;13.65;;;9.18;;
46288;SDS011;63105;46.158;14.604;2024-03-08T09:21:15;13.82;;;9.13;;
46288;SDS011;63105;46.158;14.604;2024-03-08T09:23:41;13.98;;;9.43;;
46288;SDS011;63105;46.158;14.604;2024-03-08T09:26:08;15.27;;;10.60;;
46288;SDS011;63105;46.158;14.604;2024-03-08T09:28:34;13.85;;;9.98;;
46288;SDS011;63105;46.158;14.604;2024-03-08T09:31:00;18.75;;;12.68;;
46288;SDS011;63105;46.158;14.604;2024-03-08T09:33:26;14.65;;;10.73;;
46288;SDS011;63105;46.158;14.604;2024-03-08T09:35:53;14.93;;;10.45;;
46288;SDS011;63105;46.158;14.604;2024-03-08T09:38:18;15.32;;;10.27;;
46288;SDS011;63105;46.158;14.604;2024-03-08T09:40:45;19.27;;;11.88;;
46288;SDS011;63105;46.158;14.604;2024-03-08T09:43:11;15.55;;;11.07;;
46288;SDS011;63105;46.158;14.604;2024-03-08T09:45:39;17.13;;;11.38;;
46288;SDS011;63105;46.158;14.604;2024-03-08T09:48:12;17.13;;;11.65;;
46288;SDS011;63105;46.158;14.604;2024-03-08T09:50:41;18.17;;;12.32;;
46288;SDS011;63105;46.158;14.604;2024-03-08T09:53:07;16.45;;;12.30;;
46288;SDS011;63105;46.158;14.604;2024-03-08T09:55:38;18.92;;;13.32;;
46288;SDS011;63105;46.158;14.604;2024-03-08T09:58:07;17.92;;;12.77;;
46288;SDS011;63105;46.158;14.604;2024-03-08T10:00:53;18.77;;;13.02;;
46288;SDS011;63105;46.158;14.604;2024-03-08T10:03:19;17.98;;;12.65;;
46288;SDS011;63105;46.158;14.604;2024-03-08T10:05:44;19.88;;;13.93;;
46288;SDS011;63105;46.158;14.604;2024-03-08T10:08:09;18.95;;;13.68;;
46288;SDS011;63105;46.158;14.604;2024-03-08T10:10:36;18.60;;;13.18;;
46288;SDS011;63105;46.158;14.604;2024-03-08T10:13:02;19.27;;;13.38;;
46288;SDS011;63105;46.158;14.604;2024-03-08T10:15:30;18.00;;;13.07;;
46288;SDS011;63105;46.158;14.604;2024-03-08T10:17:58;18.85;;;13.55;;
46288;SDS011;63105;46.158;14.604;2024-03-08T10:20:23;20.30;;;14.90;;
46288;SDS011;63105;46.158;14.604;2024-03-08T10:22:49;21.70;;;15.27;;
46288;SDS011;63105;46.158;14.604;2024-03-08T10:25:14;19.25;;;13.50;;
46288;SDS011;63105;46.158;14.604;2024-03-08T10:27:39;19.98;;;13.45;;
46288;SDS011;63105;46.158;14.604;2024-03-08T10:30:12;17.95;;;13.25;;
46288;SDS011;63105;46.158;14.604;2024-03-08T10:32:39;18.83;;;12.73;;
46288;SDS011;63105;46.158;14.604;2024-03-08T10:35:06;20.08;;;13.57;;
46288;SDS011;63105;46.158;14.604;2024-03-08T10:37:32;17.67;;;13.25;;
46288;SDS011;63105;46.158;14.604;2024-03-08T10:40:07;17.95;;;12.63;;
46288;SDS011;63105;46.158;14.604;2024-03-08T10:42:41;18.60;;;12.70;;
46288;SDS011;63105;46.158;14.604;2024-03-08T10:45:15;17.00;;;12.38;;
46288;SDS011;63105;46.158;14.604;2024-03-08T10:47:41;17.92;;;12.15;;
46288;SDS011;63105;46.158;14.604;2024-03-08T10:50:19;17.08;;;11.73;;
46288;SDS011;63105;46.158;14.604;2024-03-08T10:52:51;17.83;;;12.90;;
46288;SDS011;63105;46.158;14.604;2024-03-08T10:55:19;16.00;;;11.40;;
46288;SDS011;63105;46.158;14.604;2024-03-08T10:57:45;17.13;;;12.05;;
46288;SDS011;63105;46.158;14.604;2024-03-08T11:00:11;16.23;;;12.18;;
46288;SDS011;63105;46.158;14.604;2024-03-08T11:02:37;18.55;;;13.15;;
46288;SDS011;63105;46.158;14.604;2024-03-08T11:05:05;17.50;;;12.43;;
46288;SDS011;63105;46.158;14.604;2024-03-08T11:07:34;17.90;;;12.88;;
46288;SDS011;63105;46.158;14.604;2024-03-08T11:10:03;17.95;;;12.50;;
46288;SDS011;63105;46.158;14.604;2024-03-08T11:12:36;16.98;;;12.20;;
46288;SDS011;63105;46.158;14.604;2024-03-08T11:15:02;17.23;;;12.20;;
46288;SDS011;63105;46.158;14.604;2024-03-08T11:20:08;17.50;;;12.38;;
46288;SDS011;63105;46.158;14.604;2024-03-08T11:22:40;17.50;;;11.40;;
46288;SDS011;63105;46.158;14.604;2024-03-08T11:25:08;17.15;;;11.77;;
46288;SDS011;63105;46.158;14.604;2024-03-08T11:27:38;22.85;;;14.85;;
46288;SDS011;63105;46.158;14.604;2024-03-08T11:30:07;17.95;;;12.35;;
46288;SDS011;63105;46.158;14.604;2024-03-08T11:32:50;17.40;;;12.00;;
46288;SDS011;63105;46.158;14.604;2024-03-08T11:35:20;16.83;;;11.60;;
46288;SDS011;63105;46.158;14.604;2024-03-08T11:37:45;16.50;;;12.05;;
46288;SDS011;63105;46.158;14.604;2024-03-08T11:40:11;17.88;;;12.30;;
46288;SDS011;63105;46.158;14.604;2024-03-08T11:42:39;16.98;;;11.35;;
46288;SDS011;63105;46.158;14.604;2024-03-08T11:45:07;19.20;;;13.35;;
46288;SDS011;63105;46.158;14.604;2024-03-08T11:47:34;16.77;;;11.98;;
46288;SDS011;63105;46.158;14.604;2024-03-08T11:50:00;17.40;;;11.65;;
46288;SDS011;63105;46.158;14.604;2024-03-08T11:52:25;16.42;;;11.65;;
46288;SDS011;63105;46.158;14.604;2024-03-08T11:54:54;16.45;;;12.00;;
46288;SDS011;63105;46.158;14.604;2024-03-08T11:57:20;17.55;;;11.90;;
46288;SDS011;63105;46.158;14.604;2024-03-08T11:59:53;17.92;;;11.98;;
46288;SDS011;63105;46.158;14.604;2024-03-08T12:02:19;17.58;;;12.00;;
46288;SDS011;63105;46.158;14.604;2024-03-08T12:04:50;19.83;;;13.02;;
46288;SDS011;63105;46.158;14.604;2024-03-08T12:07:20;17.42;;;12.32;;
46288;SDS011;63105;46.158;14.604;2024-03-08T12:10:14;18.58;;;12.15;;
46288;SDS011;63105;46.158;14.604;2024-03-08T12:12:37;16.00;;;11.27;;
46288;SDS011;63105;46.158;14.604;2024-03-08T12:15:02;19.73;;;12.70;;
46288;SDS011;63105;46.158;14.604;2024-03-08T12:17:29;19.63;;;13.13;;
46288;SDS011;63105;46.158;14.604;2024-03-08T12:19:54;17.67;;;12.40;;
46288;SDS011;63105;46.158;14.604;2024-03-08T12:22:24;16.80;;;12.18;;
46288;SDS011;63105;46.158;14.604;2024-03-08T12:25:02;15.70;;;11.60;;
46288;SDS011;63105;46.158;14.604;2024-03-08T12:27:29;18.40;;;12.32;;
46288;SDS011;63105;46.158;14.604;2024-03-08T12:29:55;20.30;;;13.40;;
46288;SDS011;63105;46.158;14.604;2024-03-08T12:32:20;16.88;;;12.15;;
46288;SDS011;63105;46.158;14.604;2024-03-08T12:34:51;16.35;;;11.88;;
46288;SDS011;63105;46.158;14.604;2024-03-08T12:37:17;16.98;;;11.52;;
46288;SDS011;63105;46.158;14.604;2024-03-08T12:39:42;17.90;;;12.38;;
46288;SDS011;63105;46.158;14.604;2024-03-08T12:42:07;17.45;;;11.95;;
46288;SDS011;63105;46.158;14.604;2024-03-08T12:44:33;16.48;;;11.68;;
46288;SDS011;63105;46.158;14.604;2024-03-08T12:46:58;16.20;;;11.40;;
46288;SDS011;63105;46.158;14.604;2024-03-08T12:49:24;16.75;;;12.15;;
46288;SDS011;63105;46.158;14.604;2024-03-08T12:51:50;15.57;;;11.40;;
46288;SDS011;63105;46.158;14.604;2024-03-08T12:54:17;17.60;;;11.82;;
46288;SDS011;63105;46.158;14.604;2024-03-08T12:56:42;18.05;;;12.85;;
46288;SDS011;63105;46.158;14.604;2024-03-08T12:59:07;17.10;;;12.15;;
46288;SDS011;63105;46.158;14.604;2024-03-08T13:01:33;16.98;;;12.00;;
46288;SDS011;63105;46.158;14.604;2024-03-08T13:03:58;15.45;;;11.30;;
46288;SDS011;63105;46.158;14.604;2024-03-08T13:06:24;16.30;;;10.93;;
46288;SDS011;63105;46.158;14.604;2024-03-08T13:08:52;16.73;;;11.57;;
46288;SDS011;63105;46.158;14.604;2024-03-08T13:11:18;16.40;;;11.15;;
46288;SDS011;63105;46.158;14.604;2024-03-08T13:13:44;15.63;;;10.82;;
46288;SDS011;63105;46.158;14.604;2024-03-08T13:16:09;15.43;;;11.32;;
46288;SDS011;63105;46.158;14.604;2024-03-08T13:18:38;16.50;;;11.75;;
46288;SDS011;63105;46.158;14.604;2024-03-08T13:21:03;17.17;;;11.88;;
46288;SDS011;63105;46.158;14.604;2024-03-08T13:23:32;17.02;;;11.68;;
46288;SDS011;63105;46.158;14.604;2024-03-08T13:25:58;17.15;;;11.80;;
46288;SDS011;63105;46.158;14.604;2024-03-08T13:28:23;15.95;;;11.27;;
46288;SDS011;63105;46.158;14.604;2024-03-08T13:30:55;16.67;;;11.80;;
46288;SDS011;63105;46.158;14.604;2024-03-08T13:33:22;18.08;;;12.52;;
46288;SDS011;63105;46.158;14.604;2024-03-08T13:35:48;17.42;;;12.75;;
46288;SDS011;63105;46.158;14.604;2024-03-08T13:38:14;16.88;;;11.75;;
46288;SDS011;63105;46.158;14.604;2024-03-08T13:40:40;17.40;;;12.25;;
46288;SDS011;63105;46.158;14.604;2024-03-08T13:43:05;16.30;;;11.75;;
46288;SDS011;63105;46.158;14.604;2024-03-08T13:45:32;16.20;;;11.93;;
46288;SDS011;63105;46.158;14.604;2024-03-08T13:47:58;17.08;;;12.25;;
46288;SDS011;63105;46.158;14.604;2024-03-08T13:50:24;16.85;;;12.07;;
46288;SDS011;63105;46.158;14.604;2024-03-08T13:52:51;16.95;;;11.80;;
46288;SDS011;63105;46.158;14.604;2024-03-08T13:55:19;16.48;;;11.50;;
46288;SDS011;63105;46.158;14.604;2024-03-08T13:57:45;16.92;;;12.30;;
46288;SDS011;63105;46.158;14.604;2024-03-08T14:00:11;16.25;;;12.18;;
46288;SDS011;63105;46.158;14.604;2024-03-08T14:02:36;16.95;;;12.55;;
46288;SDS011;63105;46.158;14.604;2024-03-08T14:05:02;18.60;;;12.55;;
46288;SDS011;63105;46.158;14.604;2024-03-08T14:07:27;19.65;;;13.93;;
46288;SDS011;63105;46.158;14.604;2024-03-08T14:09:54;17.65;;;12.40;;
46288;SDS011;63105;46.158;14.604;2024-03-08T14:12:19;18.80;;;12.18;;
46288;SDS011;63105;46.158;14.604;2024-03-08T14:14:44;16.40;;;11.85;;
46288;SDS011;63105;46.158;14.604;2024-03-08T14:17:10;15.27;;;11.07;;
46288;SDS011;63105;46.158;14.604;2024-03-08T14:19:36;17.75;;;11.90;;
46288;SDS011;63105;46.158;14.604;2024-03-08T14:22:01;17.50;;;12.20;;